createdAt,value
2023-02-01T00:02:08.677Z,4.38
2023-02-01T00:04:57.305Z,4.38
2023-02-01T00:07:50.581Z,4.40
2023-02-01T00:10:39.177Z,4.42
2023-02-01T00:13:32.586Z,4.33
2023-02-01T00:16:23.585Z,4.34
2023-02-01T00:19:14.936Z,4.34
2023-02-01T00:22:04.884Z,4.35
2023-02-01T00:24:53.991Z,4.39
2023-02-01T00:27:42.660Z,4.36
2023-02-01T00:30:34.332Z,4.41
2023-02-01T00:33:22.953Z,4.36
2023-02-01T00:36:13.277Z,4.31
2023-02-01T00:39:02.769Z,4.28
2023-02-01T00:41:51.381Z,4.28
2023-02-01T00:44:40.808Z,4.29
2023-02-01T00:47:31.865Z,4.24
2023-02-01T00:50:21.312Z,4.27
2023-02-01T00:53:10.770Z,4.24
2023-02-01T00:56:00.557Z,4.23
2023-02-01T00:58:49.522Z,4.15
2023-02-01T01:01:39.679Z,4.04
2023-02-01T01:04:30.158Z,4.18
2023-02-01T01:07:18.840Z,4.18
2023-02-01T01:10:09.297Z,4.19
2023-02-01T01:12:57.997Z,4.23
2023-02-01T01:15:47.825Z,4.21
2023-02-01T01:18:37.565Z,4.20
2023-02-01T01:21:28.215Z,4.23
2023-02-01T01:24:17.971Z,4.21
2023-02-01T01:27:06.825Z,4.13
2023-02-01T01:29:56.275Z,4.19
2023-02-01T01:32:45.818Z,4.12
2023-02-01T01:35:34.870Z,4.19
2023-02-01T01:38:25.395Z,4.17
2023-02-01T01:41:17.145Z,4.20
2023-02-01T01:44:09.257Z,4.18
2023-02-01T01:46:57.979Z,4.17
2023-02-01T01:49:48.112Z,4.22
2023-02-01T01:52:38.916Z,4.21
2023-02-01T01:55:34.529Z,4.27
2023-02-01T01:58:27.322Z,4.29
2023-02-01T02:01:17.437Z,4.27
2023-02-01T02:04:07.093Z,4.25
2023-02-01T02:07:02.275Z,4.26
2023-02-01T02:10:00.585Z,4.28
2023-02-01T02:12:51.780Z,4.30
2023-02-01T02:15:48.294Z,4.21
2023-02-01T02:18:44.852Z,4.28
2023-02-01T02:21:48.359Z,4.21
2023-02-01T02:25:05.431Z,4.22
2023-02-01T02:28:08.097Z,4.26
2023-02-01T02:31:27.579Z,4.28
2023-02-01T02:34:20.820Z,4.27
2023-02-01T02:37:20.584Z,4.25
2023-02-01T02:40:16.863Z,4.26
2023-02-01T02:43:31.063Z,4.27
2023-02-01T02:46:44.364Z,4.25
2023-02-01T02:49:41.837Z,4.24
2023-02-01T02:52:49.252Z,4.22
2023-02-01T02:55:41.887Z,4.22
2023-02-01T02:58:48.933Z,4.19
2023-02-01T03:01:57.652Z,4.19
2023-02-01T03:04:49.508Z,4.21
2023-02-01T03:07:57.256Z,4.20
2023-02-01T03:10:54.472Z,4.13
2023-02-01T03:13:50.110Z,4.19
2023-02-01T03:16:46.161Z,4.20
2023-02-01T03:19:40.333Z,4.20
2023-02-01T03:22:32.761Z,4.17
2023-02-01T03:25:25.606Z,4.18
2023-02-01T03:28:14.943Z,4.22
2023-02-01T03:31:05.059Z,4.15
2023-02-01T03:33:54.121Z,4.19
2023-02-01T03:36:50.688Z,4.20
2023-02-01T03:39:48.047Z,4.03
2023-02-01T03:42:41.470Z,4.00
2023-02-01T03:45:34.171Z,4.24
2023-02-01T03:48:27.697Z,4.24
2023-02-01T03:51:17.005Z,4.05
2023-02-01T03:54:10.037Z,4.18
2023-02-01T03:57:03.823Z,4.18
2023-02-01T03:59:53.331Z,4.18
2023-02-01T04:02:42.020Z,4.15
2023-02-01T04:05:31.799Z,4.15
2023-02-01T04:08:29.562Z,4.13
2023-02-01T04:11:19.709Z,4.14
2023-02-01T04:14:10.072Z,4.13
2023-02-01T04:17:00.247Z,4.15
2023-02-01T04:19:48.857Z,4.14
2023-02-01T04:22:39.043Z,4.15
2023-02-01T04:25:27.784Z,4.06
2023-02-01T04:28:17.448Z,4.10
2023-02-01T04:31:07.659Z,4.01
2023-02-01T04:33:59.798Z,4.07
2023-02-01T04:36:48.433Z,4.08
2023-02-01T04:39:37.074Z,4.11
2023-02-01T04:42:26.377Z,4.04
2023-02-01T04:45:15.135Z,4.06
2023-02-01T04:48:07.433Z,4.05
2023-02-01T04:50:56.478Z,4.05
2023-02-01T04:53:45.612Z,4.01
2023-02-01T04:56:36.192Z,4.07
2023-02-01T04:59:25.529Z,4.08
2023-02-01T05:02:14.904Z,4.11
2023-02-01T05:05:05.306Z,4.09
2023-02-01T05:07:53.925Z,4.10
2023-02-01T05:10:43.191Z,4.02
2023-02-01T05:13:49.499Z,4.09
2023-02-01T05:16:38.638Z,4.12
2023-02-01T05:19:27.375Z,4.12
2023-02-01T05:22:17.321Z,4.11
2023-02-01T05:25:08.424Z,4.08
2023-02-01T05:27:57.412Z,4.08
2023-02-01T05:30:46.658Z,4.05
2023-02-01T05:33:35.296Z,4.05
2023-02-01T05:36:24.443Z,4.08
2023-02-01T05:39:14.449Z,4.07
2023-02-01T05:42:03.616Z,4.06
2023-02-01T05:44:52.269Z,4.07
2023-02-01T05:47:41.368Z,4.05
2023-02-01T05:50:30.257Z,4.10
2023-02-01T05:53:19.812Z,4.13
2023-02-01T05:56:10.306Z,4.14
2023-02-01T05:58:59.103Z,4.13
2023-02-01T06:01:48.910Z,3.97
2023-02-01T06:04:37.671Z,4.06
2023-02-01T06:07:28.126Z,4.16
2023-02-01T06:10:19.205Z,4.14
2023-02-01T06:13:10.056Z,4.14
2023-02-01T06:15:58.806Z,4.14
2023-02-01T06:18:47.830Z,4.14
2023-02-01T06:21:37.484Z,4.18
2023-02-01T06:24:26.131Z,4.17
2023-02-01T06:27:16.051Z,4.11
2023-02-01T06:30:08.268Z,4.12
2023-02-01T06:32:57.093Z,4.15
2023-02-01T06:35:46.793Z,4.15
2023-02-01T06:38:36.882Z,4.10
2023-02-01T06:41:29.020Z,4.07
2023-02-01T06:44:19.177Z,4.16
2023-02-01T06:47:09.495Z,4.14
2023-02-01T06:49:58.701Z,4.20
2023-02-01T06:52:47.304Z,4.21
2023-02-01T06:55:37.049Z,4.18
2023-02-01T06:58:26.068Z,4.10
2023-02-01T07:01:16.025Z,4.26
2023-02-01T07:04:06.177Z,4.29
2023-02-01T07:06:55.260Z,4.31
2023-02-01T07:09:44.297Z,4.33
2023-02-01T07:12:33.091Z,4.36
2023-02-01T07:15:23.791Z,4.35
2023-02-01T07:18:15.180Z,4.35
2023-02-01T07:21:05.717Z,4.40
2023-02-01T07:23:54.402Z,4.25
2023-02-01T07:26:43.194Z,4.48
2023-02-01T07:29:31.871Z,4.45
2023-02-01T07:32:20.535Z,4.53
2023-02-01T07:35:09.576Z,4.53
2023-02-01T07:38:00.489Z,4.55
2023-02-01T07:40:49.164Z,4.58
2023-02-01T07:43:38.399Z,4.46
2023-02-01T07:46:27.243Z,4.58
2023-02-01T07:49:15.876Z,4.58
2023-02-01T07:52:04.589Z,4.58
2023-02-01T07:54:54.572Z,4.61
2023-02-01T07:57:43.272Z,4.59
2023-02-01T08:00:49.655Z,4.65
2023-02-01T08:03:38.826Z,4.63
2023-02-01T08:06:28.400Z,4.63
2023-02-01T08:09:17.365Z,4.66
2023-02-01T08:12:08.077Z,4.67
2023-02-01T08:14:57.402Z,4.67
2023-02-01T08:17:49.144Z,4.64
2023-02-01T08:20:39.618Z,4.64
2023-02-01T08:23:28.245Z,4.58
2023-02-01T08:26:18.984Z,4.60
2023-02-01T08:29:12.551Z,4.55
2023-02-01T08:32:01.247Z,4.53
2023-02-01T08:34:50.048Z,4.46
2023-02-01T08:37:38.724Z,4.47
2023-02-01T08:40:27.779Z,4.58
2023-02-01T08:43:32.842Z,4.19
2023-02-01T08:46:41.942Z,4.57
2023-02-01T08:49:39.715Z,4.57
2023-02-01T08:52:28.430Z,4.53
2023-02-01T08:59:01.555Z,4.61
2023-02-01T09:02:08.980Z,4.64
2023-02-01T09:05:10.293Z,4.65
2023-02-01T09:08:22.690Z,4.70
2023-02-01T09:11:15.348Z,4.76
2023-02-01T09:17:42.819Z,4.80
2023-02-01T09:20:31.522Z,4.82
2023-02-01T09:23:21.588Z,4.82
2023-02-01T09:26:14.973Z,4.85
2023-02-01T09:29:04.490Z,4.84
2023-02-01T09:32:02.944Z,4.79
2023-02-01T09:34:54.503Z,4.88
2023-02-01T09:37:43.131Z,4.82
2023-02-01T09:40:32.458Z,4.77
2023-02-01T09:43:33.454Z,4.76
2023-02-01T09:46:26.058Z,4.82
2023-02-01T09:49:20.189Z,4.83
2023-02-01T09:52:14.993Z,4.80
2023-02-01T09:55:06.712Z,4.84
2023-02-01T09:58:00.162Z,4.72
2023-02-01T10:00:53.987Z,4.83
2023-02-01T10:03:43.068Z,4.89
2023-02-01T10:06:50.329Z,5.00
2023-02-01T10:09:54.861Z,4.93
2023-02-01T10:12:58.973Z,4.96
2023-02-01T10:16:04.366Z,4.91
2023-02-01T10:19:19.221Z,4.81
2023-02-01T10:22:11.698Z,4.73
2023-02-01T10:25:09.219Z,4.75
2023-02-01T10:28:01.490Z,4.66
2023-02-01T10:30:50.995Z,4.64
2023-02-01T10:33:45.225Z,4.67
2023-02-01T10:36:37.692Z,4.66
2023-02-01T10:39:26.646Z,4.67
2023-02-01T10:42:17.847Z,4.67
2023-02-01T11:34:48.987Z,4.58
2023-02-01T11:37:44.793Z,4.66
2023-02-01T11:41:03.057Z,4.72
2023-02-01T11:44:29.394Z,4.71
2023-02-01T11:48:39.923Z,4.77
2023-02-01T12:15:04.304Z,4.93
2023-02-01T12:18:25.299Z,4.95
2023-02-01T12:22:02.624Z,5.00
2023-02-01T12:28:48.645Z,4.41
2023-02-01T12:31:52.446Z,4.91
2023-02-01T12:35:05.868Z,4.93
2023-02-01T12:38:07.803Z,4.89
2023-02-01T12:41:09.031Z,4.84
2023-02-01T12:44:01.426Z,4.79
2023-02-01T12:46:57.936Z,4.78
2023-02-01T12:50:00.525Z,4.86
2023-02-01T12:53:21.052Z,4.89
2023-02-01T12:56:14.617Z,4.99
2023-02-01T12:59:22.765Z,5.05
2023-02-01T13:02:21.469Z,5.16
2023-02-01T13:05:17.616Z,5.12
2023-02-01T13:08:10.608Z,5.13
2023-02-01T13:11:06.378Z,5.11
2023-02-01T13:14:03.466Z,5.12
2023-02-01T13:16:59.067Z,5.12
2023-02-01T13:19:52.546Z,5.16
2023-02-01T13:22:46.440Z,5.17
2023-02-01T13:25:40.679Z,5.07
2023-02-01T13:28:33.870Z,5.10
2023-02-01T13:31:58.046Z,5.13
2023-02-01T13:35:06.221Z,5.13
2023-02-01T13:38:08.806Z,5.24
2023-02-01T13:41:16.399Z,5.22
2023-02-01T13:44:13.586Z,5.15
2023-02-01T13:47:04.861Z,5.12
2023-02-01T13:49:56.633Z,5.17
2023-02-01T13:52:52.877Z,4.99
2023-02-01T13:55:44.295Z,5.16
2023-02-01T13:58:36.333Z,5.12
2023-02-01T14:01:46.001Z,5.07
2023-02-01T14:04:51.330Z,5.08
2023-02-01T14:08:11.487Z,5.05
2023-02-01T14:11:00.941Z,5.03
2023-02-01T14:13:49.998Z,4.99
2023-02-01T14:16:38.984Z,5.04
2023-02-01T14:19:29.985Z,5.01
2023-02-01T14:22:36.271Z,5.08
2023-02-01T14:25:26.863Z,5.06
2023-02-01T14:28:26.910Z,4.98
2023-02-01T14:31:41.793Z,5.04
2023-02-01T14:34:36.894Z,4.97
2023-02-01T14:37:29.249Z,5.03
2023-02-01T14:40:22.157Z,5.02
2023-02-01T14:43:23.674Z,5.03
2023-02-01T14:46:20.983Z,5.06
2023-02-01T14:49:09.811Z,5.09
2023-02-01T14:51:59.221Z,5.06
2023-02-01T14:54:54.037Z,5.04
2023-02-01T14:57:45.266Z,4.95
2023-02-01T15:00:35.752Z,5.00
2023-02-01T15:03:36.959Z,4.99
2023-02-01T15:06:34.006Z,4.99
2023-02-01T15:09:29.036Z,5.02
2023-02-01T15:12:21.353Z,5.07
2023-02-01T15:15:18.044Z,5.02
2023-02-01T15:18:20.728Z,4.99
2023-02-01T15:21:28.190Z,4.98
2023-02-01T15:24:25.999Z,4.98
2023-02-01T15:27:15.161Z,4.98
2023-02-01T15:30:08.016Z,4.96
2023-02-01T15:33:10.912Z,4.99
2023-02-01T15:36:11.177Z,4.91
2023-02-01T15:39:24.143Z,4.96
2023-02-01T15:42:16.568Z,4.88
2023-02-01T15:45:06.487Z,4.93
2023-02-01T15:47:57.269Z,4.92
2023-02-01T15:50:49.168Z,4.88
2023-02-01T15:53:38.381Z,4.86
2023-02-01T15:56:29.126Z,4.86
2023-02-01T15:59:21.191Z,4.86
2023-02-01T16:02:28.439Z,4.89
2023-02-01T16:05:40.237Z,4.85
2023-02-01T16:08:33.414Z,4.85
2023-02-01T16:11:26.448Z,4.85
2023-02-01T16:14:15.960Z,4.82
2023-02-01T16:17:04.656Z,4.81
2023-02-01T16:19:53.877Z,4.79
2023-02-01T16:22:42.616Z,4.75
2023-02-01T16:25:33.287Z,4.69
2023-02-01T16:28:22.035Z,4.80
2023-02-01T16:31:20.053Z,4.79
2023-02-01T16:34:16.159Z,4.80
2023-02-01T16:37:06.245Z,4.78
2023-02-01T16:39:54.894Z,4.76
2023-02-01T16:42:45.600Z,4.75
2023-02-01T16:45:34.321Z,4.75
2023-02-01T16:48:24.955Z,4.76
2023-02-01T16:51:15.468Z,4.78
2023-02-01T16:54:05.743Z,4.80
2023-02-01T16:56:55.259Z,4.78
2023-02-01T16:59:46.537Z,4.79
2023-02-01T17:02:35.283Z,4.79
2023-02-01T17:05:24.393Z,4.71
2023-02-01T17:08:16.872Z,4.80
2023-02-01T17:11:08.210Z,4.69
2023-02-01T17:13:58.699Z,4.79
2023-02-01T17:16:51.725Z,4.73
2023-02-01T17:19:40.364Z,4.81
2023-02-01T17:22:29.041Z,4.83
2023-02-01T17:25:19.014Z,4.83
2023-02-01T17:28:09.364Z,4.82
2023-02-01T17:30:58.465Z,4.77
2023-02-01T17:33:49.256Z,4.85
2023-02-01T17:36:39.849Z,4.87
2023-02-01T17:39:46.287Z,4.88
2023-02-01T17:42:36.252Z,4.85
2023-02-01T17:45:37.393Z,4.91
2023-02-01T17:48:28.675Z,4.90
2023-02-01T17:51:21.816Z,4.88
2023-02-01T17:54:13.709Z,4.89
2023-02-01T17:57:03.540Z,4.92
2023-02-01T17:59:53.275Z,4.90
2023-02-01T18:02:42.954Z,4.84
2023-02-01T18:05:40.742Z,4.92
2023-02-01T18:08:33.609Z,4.92
2023-02-01T18:11:24.867Z,4.96
2023-02-01T18:14:14.119Z,4.95
2023-02-01T18:17:03.551Z,4.95
2023-02-01T18:19:52.283Z,4.95
2023-02-01T18:22:41.564Z,4.93
2023-02-01T18:25:37.076Z,4.95
2023-02-01T18:28:26.484Z,4.96
2023-02-01T18:31:24.791Z,4.94
2023-02-01T18:34:20.726Z,4.96
2023-02-01T18:37:31.663Z,4.92
2023-02-01T18:40:22.645Z,4.91
2023-02-01T18:43:13.439Z,4.92
2023-02-01T18:46:02.170Z,4.96
2023-02-01T18:48:52.369Z,4.95
2023-02-01T18:51:42.643Z,4.95
2023-02-01T18:54:32.224Z,4.95
2023-02-01T18:57:21.502Z,4.95
2023-02-01T19:00:17.430Z,4.90
2023-02-01T19:03:06.462Z,4.90
2023-02-01T19:05:57.562Z,4.91
2023-02-01T19:08:47.716Z,4.93
2023-02-01T19:11:37.200Z,4.93
2023-02-01T19:14:26.328Z,4.93
2023-02-01T19:17:16.544Z,4.89
2023-02-01T19:20:07.305Z,4.92
2023-02-01T19:22:56.390Z,4.92
2023-02-01T19:25:45.979Z,4.93
2023-02-01T19:28:35.996Z,4.92
2023-02-01T19:31:25.059Z,4.93
2023-02-01T19:34:16.818Z,4.90
2023-02-01T19:37:05.760Z,4.90
2023-02-01T19:39:56.424Z,4.89
2023-02-01T19:42:46.553Z,4.91
2023-02-01T19:45:37.613Z,4.95
2023-02-01T19:48:26.266Z,4.97
2023-02-01T19:51:18.361Z,4.93
2023-02-01T19:54:07.928Z,4.93
2023-02-01T19:56:57.032Z,4.95
2023-02-01T19:59:45.705Z,4.94
2023-02-01T20:02:34.751Z,4.95
2023-02-01T20:05:24.295Z,4.96
2023-02-01T20:08:16.480Z,4.93
2023-02-01T20:11:07.379Z,4.94
2023-02-01T20:13:58.674Z,4.95
2023-02-01T20:16:47.308Z,4.97
2023-02-01T20:19:38.142Z,4.95
2023-02-01T20:22:27.146Z,4.95
2023-02-01T20:25:17.628Z,4.91
2023-02-01T20:28:07.716Z,4.97
2023-02-01T20:30:56.501Z,4.94
2023-02-01T20:33:48.430Z,4.95
2023-02-01T20:36:37.069Z,4.98
2023-02-01T20:39:27.076Z,4.99
2023-02-01T20:42:17.373Z,5.02
2023-02-01T20:45:07.683Z,4.94
2023-02-01T20:47:57.657Z,5.03
2023-02-01T20:50:46.311Z,5.06
2023-02-01T20:53:34.976Z,5.04
2023-02-01T20:56:23.841Z,5.04
2023-02-01T20:59:14.312Z,5.06
2023-02-01T21:02:04.497Z,5.05
2023-02-01T21:04:53.870Z,5.06
2023-02-01T21:07:43.109Z,5.03
2023-02-01T21:10:31.996Z,5.07
2023-02-01T21:13:21.107Z,5.06
2023-02-01T21:16:13.271Z,5.03
2023-02-01T21:19:02.177Z,5.00
2023-02-01T21:21:51.012Z,5.02
2023-02-01T21:24:41.591Z,4.99
2023-02-01T21:27:30.216Z,4.99
2023-02-01T21:30:20.320Z,4.96
2023-02-01T21:33:10.519Z,4.94
2023-02-01T21:36:01.176Z,4.94
2023-02-01T21:38:52.220Z,4.93
2023-02-01T21:41:59.340Z,4.92
2023-02-01T21:44:48.839Z,4.83
2023-02-01T21:47:38.932Z,4.78
2023-02-01T21:50:29.049Z,4.73
2023-02-01T21:53:17.794Z,4.70
2023-02-01T21:56:07.869Z,4.69
2023-02-01T21:58:57.207Z,4.52
2023-02-01T22:01:46.424Z,4.67
2023-02-01T22:04:37.311Z,4.68
2023-02-01T22:07:27.368Z,4.67
2023-02-01T22:10:17.825Z,4.60
2023-02-01T22:13:10.513Z,4.68
2023-02-01T22:16:00.117Z,4.69
2023-02-01T22:18:49.736Z,4.67
2023-02-01T22:21:39.596Z,4.71
2023-02-01T22:24:29.557Z,4.69
2023-02-01T22:27:19.195Z,4.69
2023-02-01T22:30:08.876Z,4.63
2023-02-01T22:32:59.269Z,4.69
2023-02-01T22:35:49.289Z,4.64
2023-02-01T22:38:38.837Z,4.63
2023-02-01T22:41:28.847Z,4.68
2023-02-01T22:44:18.067Z,4.66
2023-02-01T22:47:06.774Z,4.65
2023-02-01T22:49:57.125Z,4.63
2023-02-01T22:52:45.738Z,4.69
2023-02-01T22:55:35.620Z,4.67
2023-02-01T22:58:25.664Z,4.65
2023-02-01T23:01:16.470Z,4.64
2023-02-01T23:04:06.965Z,4.56
2023-02-01T23:06:56.482Z,4.64
2023-02-01T23:09:45.558Z,4.54
2023-02-01T23:12:34.912Z,4.60
2023-02-01T23:15:25.044Z,4.60
2023-02-01T23:18:14.680Z,4.58
2023-02-01T23:21:05.302Z,4.56
2023-02-01T23:23:56.355Z,4.53
2023-02-01T23:26:45.473Z,4.60
2023-02-01T23:29:34.224Z,4.59
2023-02-01T23:32:25.761Z,4.60
2023-02-01T23:35:14.472Z,4.50
2023-02-01T23:38:03.582Z,4.59
2023-02-01T23:40:53.154Z,4.50
2023-02-01T23:43:59.072Z,4.57
2023-02-01T23:46:48.291Z,4.63
2023-02-01T23:49:38.476Z,4.63
2023-02-01T23:52:28.786Z,4.61
2023-02-01T23:55:17.966Z,4.59
2023-02-01T23:58:06.617Z,4.56
